sensor_id;sensor_type;location;lat;lon;timestamp;P1;durP1;ratioP1;P2;durP2;ratioP2
15637;SDS011;26604;53.596;10.042;2023-07-20T00:00:13;5.10;;;1.60;;
15637;SDS011;26604;53.596;10.042;2023-07-20T00:02:42;4.50;;;1.80;;
15637;SDS011;26604;53.596;10.042;2023-07-20T00:05:09;5.53;;;1.83;;
15637;SDS011;26604;53.596;10.042;2023-07-20T00:07:36;3.97;;;1.67;;
15637;SDS011;26604;53.596;10.042;2023-07-20T00:10:03;2.75;;;1.63;;
15637;SDS011;26604;53.596;10.042;2023-07-20T00:12:30;4.72;;;1.80;;
15637;SDS011;26604;53.596;10.042;2023-07-20T00:14:57;5.60;;;2.05;;
15637;SDS011;26604;53.596;10.042;2023-07-20T00:17:24;2.92;;;1.60;;
15637;SDS011;26604;53.596;10.042;2023-07-20T00:19:52;4.78;;;1.65;;
15637;SDS011;26604;53.596;10.042;2023-07-20T00:22:19;5.63;;;1.92;;
15637;SDS011;26604;53.596;10.042;2023-07-20T00:24:49;1.63;;;1.52;;
15637;SDS011;26604;53.596;10.042;2023-07-20T00:27:16;2.28;;;1.63;;
15637;SDS011;26604;53.596;10.042;2023-07-20T00:29:42;2.97;;;1.35;;
15637;SDS011;26604;53.596;10.042;2023-07-20T00:32:09;4.22;;;1.33;;
15637;SDS011;26604;53.596;10.042;2023-07-20T00:34:39;4.57;;;1.42;;
15637;SDS011;26604;53.596;10.042;2023-07-20T00:37:07;4.97;;;1.58;;
15637;SDS011;26604;53.596;10.042;2023-07-20T00:39:34;4.35;;;1.63;;
15637;SDS011;26604;53.596;10.042;2023-07-20T00:42:01;3.67;;;1.30;;
15637;SDS011;26604;53.596;10.042;2023-07-20T00:44:28;1.98;;;1.40;;
15637;SDS011;26604;53.596;10.042;2023-07-20T00:46:58;2.08;;;1.40;;
15637;SDS011;26604;53.596;10.042;2023-07-20T00:49:25;4.25;;;1.63;;
15637;SDS011;26604;53.596;10.042;2023-07-20T00:51:52;3.35;;;1.65;;
15637;SDS011;26604;53.596;10.042;2023-07-20T00:54:21;4.40;;;1.67;;
15637;SDS011;26604;53.596;10.042;2023-07-20T00:56:48;2.67;;;1.83;;
15637;SDS011;26604;53.596;10.042;2023-07-20T00:59:16;3.40;;;1.77;;
15637;SDS011;26604;53.596;10.042;2023-07-20T01:01:43;2.40;;;1.65;;
15637;SDS011;26604;53.596;10.042;2023-07-20T01:04:10;2.97;;;1.70;;
15637;SDS011;26604;53.596;10.042;2023-07-20T01:06:51;1.83;;;1.60;;
15637;SDS011;26604;53.596;10.042;2023-07-20T01:09:33;3.90;;;1.80;;
15637;SDS011;26604;53.596;10.042;2023-07-20T01:12:07;4.00;;;1.77;;
15637;SDS011;26604;53.596;10.042;2023-07-20T01:14:36;5.55;;;2.00;;
15637;SDS011;26604;53.596;10.042;2023-07-20T01:17:03;3.72;;;2.00;;
15637;SDS011;26604;53.596;10.042;2023-07-20T01:19:30;4.07;;;2.00;;
15637;SDS011;26604;53.596;10.042;2023-07-20T01:21:59;4.80;;;2.20;;
15637;SDS011;26604;53.596;10.042;2023-07-20T01:24:41;3.25;;;2.20;;
15637;SDS011;26604;53.596;10.042;2023-07-20T01:30:32;4.35;;;2.42;;
15637;SDS011;26604;53.596;10.042;2023-07-20T01:33:12;5.55;;;2.17;;
15637;SDS011;26604;53.596;10.042;2023-07-20T01:35:41;3.90;;;2.25;;
15637;SDS011;26604;53.596;10.042;2023-07-20T01:38:10;6.35;;;2.97;;
15637;SDS011;26604;53.596;10.042;2023-07-20T01:40:38;3.10;;;2.65;;
15637;SDS011;26604;53.596;10.042;2023-07-20T01:43:06;3.20;;;2.33;;
15637;SDS011;26604;53.596;10.042;2023-07-20T01:45:33;3.25;;;2.10;;
15637;SDS011;26604;53.596;10.042;2023-07-20T01:48:00;3.65;;;2.67;;
15637;SDS011;26604;53.596;10.042;2023-07-20T01:50:28;4.63;;;2.25;;
15637;SDS011;26604;53.596;10.042;2023-07-20T01:52:55;4.43;;;2.35;;
15637;SDS011;26604;53.596;10.042;2023-07-20T01:55:22;3.38;;;2.38;;
15637;SDS011;26604;53.596;10.042;2023-07-20T01:57:49;3.63;;;2.67;;
15637;SDS011;26604;53.596;10.042;2023-07-20T02:00:16;6.40;;;2.22;;
15637;SDS011;26604;53.596;10.042;2023-07-20T02:02:46;4.15;;;2.33;;
15637;SDS011;26604;53.596;10.042;2023-07-20T02:05:13;3.30;;;2.53;;
15637;SDS011;26604;53.596;10.042;2023-07-20T02:07:41;5.30;;;2.50;;
15637;SDS011;26604;53.596;10.042;2023-07-20T02:10:10;4.47;;;2.33;;
15637;SDS011;26604;53.596;10.042;2023-07-20T02:12:37;4.90;;;2.35;;
15637;SDS011;26604;53.596;10.042;2023-07-20T02:15:04;5.63;;;2.00;;
15637;SDS011;26604;53.596;10.042;2023-07-20T02:17:31;4.13;;;2.20;;
15637;SDS011;26604;53.596;10.042;2023-07-20T02:19:58;4.85;;;2.00;;
15637;SDS011;26604;53.596;10.042;2023-07-20T02:22:25;3.60;;;2.20;;
15637;SDS011;26604;53.596;10.042;2023-07-20T02:24:54;4.03;;;2.35;;
15637;SDS011;26604;53.596;10.042;2023-07-20T02:27:20;3.45;;;2.35;;
15637;SDS011;26604;53.596;10.042;2023-07-20T02:29:47;4.60;;;2.58;;
15637;SDS011;26604;53.596;10.042;2023-07-20T02:32:15;3.05;;;2.42;;
15637;SDS011;26604;53.596;10.042;2023-07-20T02:34:42;3.45;;;2.40;;
15637;SDS011;26604;53.596;10.042;2023-07-20T02:37:09;2.45;;;2.22;;
15637;SDS011;26604;53.596;10.042;2023-07-20T02:39:38;3.28;;;2.30;;
15637;SDS011;26604;53.596;10.042;2023-07-20T02:42:06;4.25;;;2.40;;
15637;SDS011;26604;53.596;10.042;2023-07-20T02:44:33;3.47;;;2.30;;
15637;SDS011;26604;53.596;10.042;2023-07-20T02:47:00;7.15;;;2.78;;
15637;SDS011;26604;53.596;10.042;2023-07-20T02:49:27;3.80;;;2.22;;
15637;SDS011;26604;53.596;10.042;2023-07-20T02:51:53;2.90;;;2.42;;
15637;SDS011;26604;53.596;10.042;2023-07-20T02:54:20;3.03;;;2.05;;
15637;SDS011;26604;53.596;10.042;2023-07-20T02:56:48;2.72;;;2.25;;
15637;SDS011;26604;53.596;10.042;2023-07-20T02:59:18;3.72;;;2.30;;
15637;SDS011;26604;53.596;10.042;2023-07-20T03:01:46;3.20;;;2.03;;
15637;SDS011;26604;53.596;10.042;2023-07-20T03:04:12;3.03;;;2.47;;
15637;SDS011;26604;53.596;10.042;2023-07-20T03:06:39;3.75;;;2.20;;
15637;SDS011;26604;53.596;10.042;2023-07-20T03:09:06;3.42;;;2.53;;
15637;SDS011;26604;53.596;10.042;2023-07-20T03:11:34;3.35;;;2.60;;
15637;SDS011;26604;53.596;10.042;2023-07-20T03:14:01;3.85;;;2.30;;
15637;SDS011;26604;53.596;10.042;2023-07-20T03:16:29;2.90;;;2.60;;
15637;SDS011;26604;53.596;10.042;2023-07-20T03:18:58;3.53;;;2.65;;
15637;SDS011;26604;53.596;10.042;2023-07-20T03:21:25;3.35;;;2.50;;
15637;SDS011;26604;53.596;10.042;2023-07-20T03:23:52;4.65;;;2.50;;
15637;SDS011;26604;53.596;10.042;2023-07-20T03:26:19;4.45;;;2.83;;
15637;SDS011;26604;53.596;10.042;2023-07-20T03:28:46;2.90;;;2.60;;
15637;SDS011;26604;53.596;10.042;2023-07-20T03:31:13;2.90;;;2.60;;
15637;SDS011;26604;53.596;10.042;2023-07-20T03:33:42;3.75;;;2.30;;
15637;SDS011;26604;53.596;10.042;2023-07-20T03:36:09;3.03;;;2.30;;
15637;SDS011;26604;53.596;10.042;2023-07-20T03:38:36;3.67;;;2.35;;
15637;SDS011;26604;53.596;10.042;2023-07-20T03:41:03;2.33;;;2.10;;
15637;SDS011;26604;53.596;10.042;2023-07-20T03:43:30;5.50;;;2.67;;
15637;SDS011;26604;53.596;10.042;2023-07-20T03:45:56;3.80;;;2.17;;
15637;SDS011;26604;53.596;10.042;2023-07-20T03:48:24;4.32;;;2.00;;
15637;SDS011;26604;53.596;10.042;2023-07-20T03:50:52;2.88;;;1.50;;
15637;SDS011;26604;53.596;10.042;2023-07-20T03:53:20;2.15;;;1.85;;
15637;SDS011;26604;53.596;10.042;2023-07-20T03:55:47;3.28;;;2.00;;
15637;SDS011;26604;53.596;10.042;2023-07-20T03:58:16;2.00;;;1.70;;
15637;SDS011;26604;53.596;10.042;2023-07-20T04:00:44;2.40;;;2.10;;
15637;SDS011;26604;53.596;10.042;2023-07-20T04:03:11;2.58;;;1.92;;
15637;SDS011;26604;53.596;10.042;2023-07-20T04:05:38;4.32;;;2.20;;
15637;SDS011;26604;53.596;10.042;2023-07-20T04:08:07;4.10;;;2.60;;
15637;SDS011;26604;53.596;10.042;2023-07-20T04:10:34;2.58;;;2.22;;
15637;SDS011;26604;53.596;10.042;2023-07-20T04:13:01;3.22;;;2.05;;
15637;SDS011;26604;53.596;10.042;2023-07-20T04:15:28;3.85;;;2.35;;
15637;SDS011;26604;53.596;10.042;2023-07-20T04:17:55;2.70;;;2.50;;
15637;SDS011;26604;53.596;10.042;2023-07-20T04:20:22;3.83;;;2.20;;
15637;SDS011;26604;53.596;10.042;2023-07-20T04:22:49;3.63;;;2.08;;
15637;SDS011;26604;53.596;10.042;2023-07-20T04:25:17;3.13;;;2.20;;
15637;SDS011;26604;53.596;10.042;2023-07-20T04:27:45;3.17;;;2.33;;
15637;SDS011;26604;53.596;10.042;2023-07-20T04:30:12;3.08;;;2.20;;
15637;SDS011;26604;53.596;10.042;2023-07-20T04:32:41;3.63;;;2.00;;
15637;SDS011;26604;53.596;10.042;2023-07-20T04:35:10;3.38;;;2.60;;
15637;SDS011;26604;53.596;10.042;2023-07-20T04:37:46;2.42;;;2.13;;
15637;SDS011;26604;53.596;10.042;2023-07-20T04:40:15;3.70;;;2.38;;
15637;SDS011;26604;53.596;10.042;2023-07-20T04:42:43;4.07;;;2.58;;
15637;SDS011;26604;53.596;10.042;2023-07-20T04:45:10;4.22;;;2.35;;
15637;SDS011;26604;53.596;10.042;2023-07-20T04:47:38;2.10;;;1.90;;
15637;SDS011;26604;53.596;10.042;2023-07-20T04:50:05;2.47;;;2.00;;
15637;SDS011;26604;53.596;10.042;2023-07-20T04:52:32;5.60;;;1.88;;
15637;SDS011;26604;53.596;10.042;2023-07-20T04:54:59;3.05;;;1.75;;
15637;SDS011;26604;53.596;10.042;2023-07-20T04:57:26;3.33;;;1.70;;
15637;SDS011;26604;53.596;10.042;2023-07-20T04:59:54;2.47;;;1.85;;
15637;SDS011;26604;53.596;10.042;2023-07-20T05:02:21;3.53;;;1.60;;
15637;SDS011;26604;53.596;10.042;2023-07-20T05:04:48;4.50;;;1.48;;
15637;SDS011;26604;53.596;10.042;2023-07-20T05:07:15;6.60;;;1.67;;
15637;SDS011;26604;53.596;10.042;2023-07-20T05:09:41;2.75;;;1.48;;
15637;SDS011;26604;53.596;10.042;2023-07-20T05:12:08;1.50;;;1.30;;
15637;SDS011;26604;53.596;10.042;2023-07-20T05:14:37;2.70;;;1.50;;
15637;SDS011;26604;53.596;10.042;2023-07-20T05:17:08;3.40;;;1.40;;
15637;SDS011;26604;53.596;10.042;2023-07-20T05:19:35;5.18;;;3.05;;
15637;SDS011;26604;53.596;10.042;2023-07-20T05:22:02;4.35;;;1.60;;
15637;SDS011;26604;53.596;10.042;2023-07-20T05:24:30;4.30;;;1.67;;
15637;SDS011;26604;53.596;10.042;2023-07-20T05:26:57;5.25;;;2.13;;
15637;SDS011;26604;53.596;10.042;2023-07-20T05:29:24;1.85;;;1.38;;
15637;SDS011;26604;53.596;10.042;2023-07-20T05:31:51;2.28;;;1.48;;
15637;SDS011;26604;53.596;10.042;2023-07-20T05:34:19;4.38;;;1.67;;
15637;SDS011;26604;53.596;10.042;2023-07-20T05:36:46;3.40;;;1.70;;
15637;SDS011;26604;53.596;10.042;2023-07-20T05:39:13;3.10;;;1.58;;
15637;SDS011;26604;53.596;10.042;2023-07-20T05:41:39;1.80;;;1.58;;
15637;SDS011;26604;53.596;10.042;2023-07-20T05:44:06;2.92;;;1.85;;
15637;SDS011;26604;53.596;10.042;2023-07-20T05:46:33;3.38;;;1.73;;
15637;SDS011;26604;53.596;10.042;2023-07-20T05:49:00;3.38;;;1.80;;
15637;SDS011;26604;53.596;10.042;2023-07-20T05:51:31;3.83;;;1.88;;
15637;SDS011;26604;53.596;10.042;2023-07-20T05:53:58;5.43;;;1.92;;
15637;SDS011;26604;53.596;10.042;2023-07-20T05:56:25;6.28;;;1.80;;
15637;SDS011;26604;53.596;10.042;2023-07-20T05:58:52;4.63;;;2.70;;
15637;SDS011;26604;53.596;10.042;2023-07-20T06:01:19;1.38;;;1.27;;
15637;SDS011;26604;53.596;10.042;2023-07-20T06:03:46;1.90;;;1.35;;
15637;SDS011;26604;53.596;10.042;2023-07-20T06:06:13;9.30;;;3.13;;
15637;SDS011;26604;53.596;10.042;2023-07-20T06:08:41;3.45;;;1.70;;
15637;SDS011;26604;53.596;10.042;2023-07-20T06:11:08;3.47;;;1.60;;
15637;SDS011;26604;53.596;10.042;2023-07-20T06:13:35;3.28;;;1.70;;
15637;SDS011;26604;53.596;10.042;2023-07-20T06:16:05;1.92;;;1.30;;
15637;SDS011;26604;53.596;10.042;2023-07-20T06:18:31;3.85;;;1.73;;
15637;SDS011;26604;53.596;10.042;2023-07-20T06:20:58;2.40;;;1.50;;
15637;SDS011;26604;53.596;10.042;2023-07-20T06:23:25;5.85;;;1.92;;
15637;SDS011;26604;53.596;10.042;2023-07-20T06:25:53;1.85;;;1.40;;
15637;SDS011;26604;53.596;10.042;2023-07-20T06:28:20;3.03;;;1.38;;
15637;SDS011;26604;53.596;10.042;2023-07-20T06:30:47;2.20;;;1.20;;
15637;SDS011;26604;53.596;10.042;2023-07-20T06:33:15;1.55;;;1.02;;
15637;SDS011;26604;53.596;10.042;2023-07-20T06:35:45;3.60;;;1.30;;
15637;SDS011;26604;53.596;10.042;2023-07-20T06:38:12;2.50;;;0.75;;
15637;SDS011;26604;53.596;10.042;2023-07-20T06:40:39;5.18;;;1.27;;
15637;SDS011;26604;53.596;10.042;2023-07-20T06:43:07;4.45;;;1.30;;
15637;SDS011;26604;53.596;10.042;2023-07-20T06:45:34;2.67;;;1.00;;
15637;SDS011;26604;53.596;10.042;2023-07-20T06:48:01;1.92;;;1.25;;
15637;SDS011;26604;53.596;10.042;2023-07-20T06:50:28;3.35;;;0.90;;
15637;SDS011;26604;53.596;10.042;2023-07-20T06:52:55;1.80;;;0.95;;
15637;SDS011;26604;53.596;10.042;2023-07-20T06:55:23;6.53;;;1.20;;
15637;SDS011;26604;53.596;10.042;2023-07-20T06:57:50;3.22;;;0.95;;
15637;SDS011;26604;53.596;10.042;2023-07-20T07:00:19;1.70;;;0.90;;
15637;SDS011;26604;53.596;10.042;2023-07-20T07:02:46;7.43;;;1.25;;
15637;SDS011;26604;53.596;10.042;2023-07-20T07:05:13;1.77;;;0.85;;
15637;SDS011;26604;53.596;10.042;2023-07-20T07:07:40;3.05;;;1.10;;
15637;SDS011;26604;53.596;10.042;2023-07-20T07:10:08;2.78;;;1.23;;
15637;SDS011;26604;53.596;10.042;2023-07-20T07:12:35;6.22;;;1.00;;
15637;SDS011;26604;53.596;10.042;2023-07-20T07:15:02;3.25;;;0.98;;
15637;SDS011;26604;53.596;10.042;2023-07-20T07:17:32;3.28;;;1.08;;
15637;SDS011;26604;53.596;10.042;2023-07-20T07:20:00;4.53;;;0.95;;
15637;SDS011;26604;53.596;10.042;2023-07-20T07:22:27;1.80;;;1.00;;
15637;SDS011;26604;53.596;10.042;2023-07-20T07:24:54;4.07;;;1.08;;
15637;SDS011;26604;53.596;10.042;2023-07-20T07:27:21;4.13;;;1.77;;
15637;SDS011;26604;53.596;10.042;2023-07-20T07:29:48;3.15;;;0.90;;
15637;SDS011;26604;53.596;10.042;2023-07-20T07:32:15;3.30;;;1.02;;
15637;SDS011;26604;53.596;10.042;2023-07-20T07:34:43;3.65;;;1.10;;
15637;SDS011;26604;53.596;10.042;2023-07-20T07:37:13;2.10;;;0.90;;
15637;SDS011;26604;53.596;10.042;2023-07-20T07:39:41;2.00;;;0.82;;
15637;SDS011;26604;53.596;10.042;2023-07-20T07:42:08;5.18;;;1.13;;
15637;SDS011;26604;53.596;10.042;2023-07-20T07:44:35;8.48;;;1.20;;
15637;SDS011;26604;53.596;10.042;2023-07-20T07:47:02;6.78;;;1.00;;
15637;SDS011;26604;53.596;10.042;2023-07-20T07:49:29;2.35;;;0.88;;
15637;SDS011;26604;53.596;10.042;2023-07-20T07:51:57;4.32;;;1.17;;
15637;SDS011;26604;53.596;10.042;2023-07-20T07:54:27;3.03;;;1.48;;
15637;SDS011;26604;53.596;10.042;2023-07-20T07:56:54;4.47;;;1.20;;
15637;SDS011;26604;53.596;10.042;2023-07-20T07:59:21;5.25;;;1.42;;
15637;SDS011;26604;53.596;10.042;2023-07-20T08:01:48;3.13;;;1.30;;
15637;SDS011;26604;53.596;10.042;2023-07-20T08:04:15;4.88;;;2.05;;
15637;SDS011;26604;53.596;10.042;2023-07-20T08:06:41;3.33;;;1.38;;
15637;SDS011;26604;53.596;10.042;2023-07-20T08:09:10;5.25;;;1.75;;
15637;SDS011;26604;53.596;10.042;2023-07-20T08:11:38;5.40;;;1.67;;
15637;SDS011;26604;53.596;10.042;2023-07-20T08:14:05;5.72;;;1.85;;
15637;SDS011;26604;53.596;10.042;2023-07-20T08:16:32;5.82;;;1.60;;
15637;SDS011;26604;53.596;10.042;2023-07-20T08:18:59;4.55;;;1.83;;
15637;SDS011;26604;53.596;10.042;2023-07-20T08:21:27;4.80;;;1.60;;
15637;SDS011;26604;53.596;10.042;2023-07-20T08:23:54;5.75;;;1.45;;
15637;SDS011;26604;53.596;10.042;2023-07-20T08:26:22;4.95;;;1.60;;
15637;SDS011;26604;53.596;10.042;2023-07-20T08:28:49;4.05;;;1.73;;
15637;SDS011;26604;53.596;10.042;2023-07-20T08:31:17;5.10;;;1.52;;
15637;SDS011;26604;53.596;10.042;2023-07-20T08:33:43;7.00;;;1.67;;
15637;SDS011;26604;53.596;10.042;2023-07-20T08:36:10;4.45;;;1.73;;
15637;SDS011;26604;53.596;10.042;2023-07-20T08:38:37;6.63;;;1.63;;
15637;SDS011;26604;53.596;10.042;2023-07-20T08:41:04;3.60;;;1.45;;
15637;SDS011;26604;53.596;10.042;2023-07-20T08:43:32;4.45;;;1.60;;
15637;SDS011;26604;53.596;10.042;2023-07-20T08:46:00;7.18;;;1.48;;
15637;SDS011;26604;53.596;10.042;2023-07-20T08:48:28;7.90;;;2.35;;
15637;SDS011;26604;53.596;10.042;2023-07-20T08:50:58;9.75;;;1.75;;
15637;SDS011;26604;53.596;10.042;2023-07-20T08:53:26;7.40;;;1.77;;
15637;SDS011;26604;53.596;10.042;2023-07-20T08:55:54;4.75;;;1.55;;
15637;SDS011;26604;53.596;10.042;2023-07-20T08:58:21;4.90;;;1.30;;
15637;SDS011;26604;53.596;10.042;2023-07-20T09:00:53;4.50;;;1.70;;
15637;SDS011;26604;53.596;10.042;2023-07-20T09:03:21;4.68;;;1.73;;
15637;SDS011;26604;53.596;10.042;2023-07-20T09:05:48;5.70;;;1.67;;
15637;SDS011;26604;53.596;10.042;2023-07-20T09:08:15;11.02;;;2.45;;
15637;SDS011;26604;53.596;10.042;2023-07-20T09:10:41;7.25;;;1.95;;
15637;SDS011;26604;53.596;10.042;2023-07-20T09:13:08;5.35;;;1.90;;
15637;SDS011;26604;53.596;10.042;2023-07-20T09:15:35;6.97;;;1.90;;
15637;SDS011;26604;53.596;10.042;2023-07-20T09:18:04;4.85;;;1.88;;
15637;SDS011;26604;53.596;10.042;2023-07-20T09:20:32;4.63;;;1.88;;
15637;SDS011;26604;53.596;10.042;2023-07-20T09:22:59;8.60;;;1.60;;
15637;SDS011;26604;53.596;10.042;2023-07-20T09:25:30;6.22;;;1.40;;
15637;SDS011;26604;53.596;10.042;2023-07-20T09:27:57;5.57;;;1.55;;
15637;SDS011;26604;53.596;10.042;2023-07-20T09:30:29;3.63;;;1.48;;
15637;SDS011;26604;53.596;10.042;2023-07-20T09:32:56;2.35;;;1.00;;
15637;SDS011;26604;53.596;10.042;2023-07-20T09:35:25;3.83;;;0.95;;
15637;SDS011;26604;53.596;10.042;2023-07-20T09:37:53;3.92;;;0.82;;
15637;SDS011;26604;53.596;10.042;2023-07-20T09:40:21;3.45;;;1.00;;
15637;SDS011;26604;53.596;10.042;2023-07-20T09:42:48;4.13;;;1.30;;
15637;SDS011;26604;53.596;10.042;2023-07-20T09:45:18;3.83;;;0.95;;
15637;SDS011;26604;53.596;10.042;2023-07-20T09:47:46;6.50;;;1.10;;
15637;SDS011;26604;53.596;10.042;2023-07-20T09:50:13;6.10;;;1.00;;
15637;SDS011;26604;53.596;10.042;2023-07-20T09:52:41;2.88;;;1.00;;
15637;SDS011;26604;53.596;10.042;2023-07-20T09:55:09;4.93;;;0.80;;
15637;SDS011;26604;53.596;10.042;2023-07-20T09:57:37;3.70;;;0.95;;
15637;SDS011;26604;53.596;10.042;2023-07-20T10:00:05;2.83;;;1.10;;
15637;SDS011;26604;53.596;10.042;2023-07-20T10:02:40;2.60;;;0.77;;
15637;SDS011;26604;53.596;10.042;2023-07-20T10:05:08;8.48;;;1.08;;
15637;SDS011;26604;53.596;10.042;2023-07-20T10:07:43;5.63;;;0.80;;
15637;SDS011;26604;53.596;10.042;2023-07-20T10:10:13;5.82;;;1.17;;
15637;SDS011;26604;53.596;10.042;2023-07-20T10:12:42;3.03;;;1.00;;
15637;SDS011;26604;53.596;10.042;2023-07-20T10:15:11;3.72;;;1.30;;
15637;SDS011;26604;53.596;10.042;2023-07-20T10:17:49;4.50;;;0.85;;
15637;SDS011;26604;53.596;10.042;2023-07-20T10:20:23;3.75;;;0.80;;
15637;SDS011;26604;53.596;10.042;2023-07-20T10:22:54;2.92;;;0.93;;
15637;SDS011;26604;53.596;10.042;2023-07-20T10:25:23;3.70;;;0.60;;
15637;SDS011;26604;53.596;10.042;2023-07-20T10:27:50;3.60;;;0.80;;
15637;SDS011;26604;53.596;10.042;2023-07-20T10:30:17;3.85;;;0.68;;
15637;SDS011;26604;53.596;10.042;2023-07-20T10:32:45;1.92;;;0.90;;
15637;SDS011;26604;53.596;10.042;2023-07-20T10:35:13;3.60;;;1.00;;
15637;SDS011;26604;53.596;10.042;2023-07-20T10:37:48;5.72;;;1.02;;
15637;SDS011;26604;53.596;10.042;2023-07-20T10:40:27;4.07;;;0.93;;
15637;SDS011;26604;53.596;10.042;2023-07-20T10:42:59;3.67;;;0.73;;
15637;SDS011;26604;53.596;10.042;2023-07-20T10:45:39;2.83;;;0.70;;
15637;SDS011;26604;53.596;10.042;2023-07-20T10:48:12;2.45;;;0.80;;
15637;SDS011;26604;53.596;10.042;2023-07-20T10:50:41;1.73;;;0.60;;
15637;SDS011;26604;53.596;10.042;2023-07-20T10:53:12;3.72;;;0.73;;
15637;SDS011;26604;53.596;10.042;2023-07-20T10:55:41;2.25;;;0.60;;
15637;SDS011;26604;53.596;10.042;2023-07-20T10:58:11;3.97;;;0.82;;
15637;SDS011;26604;53.596;10.042;2023-07-20T11:00:54;2.55;;;0.70;;
15637;SDS011;26604;53.596;10.042;2023-07-20T11:03:28;3.97;;;0.90;;
15637;SDS011;26604;53.596;10.042;2023-07-20T11:05:56;5.85;;;0.77;;
15637;SDS011;26604;53.596;10.042;2023-07-20T11:08:40;5.75;;;0.80;;
15637;SDS011;26604;53.596;10.042;2023-07-20T11:11:25;6.47;;;0.88;;
15637;SDS011;26604;53.596;10.042;2023-07-20T11:13:55;1.83;;;0.77;;
15637;SDS011;26604;53.596;10.042;2023-07-20T11:16:36;2.20;;;0.73;;
15637;SDS011;26604;53.596;10.042;2023-07-20T11:19:04;2.35;;;0.90;;
15637;SDS011;26604;53.596;10.042;2023-07-20T11:21:35;4.80;;;1.00;;
15637;SDS011;26604;53.596;10.042;2023-07-20T11:24:04;3.13;;;0.80;;
15637;SDS011;26604;53.596;10.042;2023-07-20T11:26:46;8.45;;;1.33;;
15637;SDS011;26604;53.596;10.042;2023-07-20T11:29:15;2.65;;;0.98;;
15637;SDS011;26604;53.596;10.042;2023-07-20T11:31:43;3.30;;;0.68;;
15637;SDS011;26604;53.596;10.042;2023-07-20T11:34:11;1.98;;;0.80;;
15637;SDS011;26604;53.596;10.042;2023-07-20T11:36:39;1.00;;;0.73;;
15637;SDS011;26604;53.596;10.042;2023-07-20T11:39:08;1.40;;;0.40;;
15637;SDS011;26604;53.596;10.042;2023-07-20T11:41:35;2.28;;;0.60;;
15637;SDS011;26604;53.596;10.042;2023-07-20T11:44:04;4.35;;;0.60;;
15637;SDS011;26604;53.596;10.042;2023-07-20T11:46:32;2.60;;;0.85;;
15637;SDS011;26604;53.596;10.042;2023-07-20T11:49:01;0.70;;;0.50;;
15637;SDS011;26604;53.596;10.042;2023-07-20T11:51:28;1.60;;;0.57;;
15637;SDS011;26604;53.596;10.042;2023-07-20T11:53:55;4.22;;;0.70;;
15637;SDS011;26604;53.596;10.042;2023-07-20T11:56:23;4.18;;;0.95;;
15637;SDS011;26604;53.596;10.042;2023-07-20T11:58:53;1.38;;;0.80;;
15637;SDS011;26604;53.596;10.042;2023-07-20T12:01:23;5.32;;;0.60;;
15637;SDS011;26604;53.596;10.042;2023-07-20T12:03:51;2.67;;;0.60;;
15637;SDS011;26604;53.596;10.042;2023-07-20T12:06:18;1.52;;;0.60;;
15637;SDS011;26604;53.596;10.042;2023-07-20T12:08:44;3.10;;;0.73;;
15637;SDS011;26604;53.596;10.042;2023-07-20T12:11:11;4.45;;;0.70;;
15637;SDS011;26604;53.596;10.042;2023-07-20T12:13:40;2.47;;;0.65;;
15637;SDS011;26604;53.596;10.042;2023-07-20T12:16:10;3.75;;;0.73;;
15637;SDS011;26604;53.596;10.042;2023-07-20T12:18:39;5.07;;;1.00;;
15637;SDS011;26604;53.596;10.042;2023-07-20T12:21:07;6.40;;;0.88;;
15637;SDS011;26604;53.596;10.042;2023-07-20T12:23:34;2.83;;;0.90;;
15637;SDS011;26604;53.596;10.042;2023-07-20T12:26:02;2.42;;;1.00;;
15637;SDS011;26604;53.596;10.042;2023-07-20T12:28:30;4.35;;;1.15;;
15637;SDS011;26604;53.596;10.042;2023-07-20T12:30:58;2.53;;;0.73;;
15637;SDS011;26604;53.596;10.042;2023-07-20T12:33:25;4.10;;;0.80;;
15637;SDS011;26604;53.596;10.042;2023-07-20T12:35:53;3.63;;;1.08;;
15637;SDS011;26604;53.596;10.042;2023-07-20T12:38:21;4.18;;;0.90;;
15637;SDS011;26604;53.596;10.042;2023-07-20T12:40:48;3.80;;;1.00;;
15637;SDS011;26604;53.596;10.042;2023-07-20T12:43:15;4.35;;;0.90;;
15637;SDS011;26604;53.596;10.042;2023-07-20T12:45:42;4.28;;;1.05;;
15637;SDS011;26604;53.596;10.042;2023-07-20T12:48:09;5.13;;;1.00;;
15637;SDS011;26604;53.596;10.042;2023-07-20T12:50:42;2.38;;;0.82;;
15637;SDS011;26604;53.596;10.042;2023-07-20T12:53:10;9.48;;;0.93;;
15637;SDS011;26604;53.596;10.042;2023-07-20T12:55:37;10.65;;;1.35;;
15637;SDS011;26604;53.596;10.042;2023-07-20T12:58:05;3.70;;;1.05;;
15637;SDS011;26604;53.596;10.042;2023-07-20T13:00:32;3.95;;;1.08;;
15637;SDS011;26604;53.596;10.042;2023-07-20T13:02:58;6.25;;;1.27;;
15637;SDS011;26604;53.596;10.042;2023-07-20T13:05:27;3.28;;;0.85;;
15637;SDS011;26604;53.596;10.042;2023-07-20T13:07:54;2.60;;;0.98;;
15637;SDS011;26604;53.596;10.042;2023-07-20T13:10:22;3.92;;;0.90;;
15637;SDS011;26604;53.596;10.042;2023-07-20T13:12:49;2.75;;;0.68;;
15637;SDS011;26604;53.596;10.042;2023-07-20T13:15:17;4.32;;;0.98;;
15637;SDS011;26604;53.596;10.042;2023-07-20T13:17:44;3.65;;;1.05;;
15637;SDS011;26604;53.596;10.042;2023-07-20T13:20:11;3.72;;;0.80;;
15637;SDS011;26604;53.596;10.042;2023-07-20T13:22:39;3.85;;;0.60;;
15637;SDS011;26604;53.596;10.042;2023-07-20T13:25:07;1.27;;;0.50;;
15637;SDS011;26604;53.596;10.042;2023-07-20T13:27:36;1.20;;;0.60;;
15637;SDS011;26604;53.596;10.042;2023-07-20T13:30:03;4.03;;;0.80;;
15637;SDS011;26604;53.596;10.042;2023-07-20T13:32:31;1.45;;;0.65;;
15637;SDS011;26604;53.596;10.042;2023-07-20T13:34:59;2.10;;;0.55;;
15637;SDS011;26604;53.596;10.042;2023-07-20T13:37:26;2.50;;;0.80;;
15637;SDS011;26604;53.596;10.042;2023-07-20T13:39:53;2.67;;;0.93;;
15637;SDS011;26604;53.596;10.042;2023-07-20T13:42:20;2.38;;;0.70;;
15637;SDS011;26604;53.596;10.042;2023-07-20T13:44:48;6.88;;;0.80;;
15637;SDS011;26604;53.596;10.042;2023-07-20T13:47:15;5.03;;;0.90;;
15637;SDS011;26604;53.596;10.042;2023-07-20T13:49:42;1.40;;;0.57;;
15637;SDS011;26604;53.596;10.042;2023-07-20T13:52:09;1.42;;;0.52;;
15637;SDS011;26604;53.596;10.042;2023-07-20T13:54:36;3.17;;;0.70;;
15637;SDS011;26604;53.596;10.042;2023-07-20T13:57:03;5.32;;;0.73;;
15637;SDS011;26604;53.596;10.042;2023-07-20T13:59:31;2.03;;;0.50;;
15637;SDS011;26604;53.596;10.042;2023-07-20T14:01:59;0.68;;;0.50;;
15637;SDS011;26604;53.596;10.042;2023-07-20T14:04:26;5.07;;;1.15;;
15637;SDS011;26604;53.596;10.042;2023-07-20T14:06:54;0.90;;;0.50;;
15637;SDS011;26604;53.596;10.042;2023-07-20T14:09:21;1.98;;;0.40;;
15637;SDS011;26604;53.596;10.042;2023-07-20T14:11:48;2.03;;;0.50;;
15637;SDS011;26604;53.596;10.042;2023-07-20T14:14:15;3.25;;;0.55;;
15637;SDS011;26604;53.596;10.042;2023-07-20T14:16:41;3.95;;;1.20;;
15637;SDS011;26604;53.596;10.042;2023-07-20T14:19:10;3.97;;;0.70;;
15637;SDS011;26604;53.596;10.042;2023-07-20T14:21:37;3.72;;;0.95;;
15637;SDS011;26604;53.596;10.042;2023-07-20T14:24:04;5.72;;;0.80;;
15637;SDS011;26604;53.596;10.042;2023-07-20T14:26:32;3.65;;;1.20;;
15637;SDS011;26604;53.596;10.042;2023-07-20T14:29:00;2.15;;;0.80;;
15637;SDS011;26604;53.596;10.042;2023-07-20T14:31:27;5.20;;;1.83;;
15637;SDS011;26604;53.596;10.042;2023-07-20T14:33:54;4.00;;;0.93;;
15637;SDS011;26604;53.596;10.042;2023-07-20T14:36:22;2.83;;;0.90;;
15637;SDS011;26604;53.596;10.042;2023-07-20T14:38:49;2.42;;;0.85;;
15637;SDS011;26604;53.596;10.042;2023-07-20T14:41:16;2.30;;;0.60;;